createdAt,value
2022-11-23T00:01:16.593Z,4.70
2022-11-23T00:03:44.441Z,5.35
2022-11-23T00:06:12.079Z,4.88
2022-11-23T00:08:39.971Z,5.63
2022-11-23T00:11:09.321Z,5.20
2022-11-23T00:13:39.411Z,4.80
2022-11-23T00:16:09.319Z,5.88
2022-11-23T00:18:37.109Z,5.40
2022-11-23T00:21:08.933Z,5.00
2022-11-23T00:23:37.161Z,5.13
2022-11-23T00:26:05.792Z,5.30
2022-11-23T00:28:37.265Z,5.18
2022-11-23T00:31:05.137Z,5.60
2022-11-23T00:33:32.834Z,5.47
2022-11-23T00:36:01.591Z,5.72
2022-11-23T00:38:29.652Z,5.43
2022-11-23T00:41:01.768Z,6.50
2022-11-23T00:43:30.198Z,5.90
2022-11-23T00:46:11.279Z,5.78
2022-11-23T00:48:39.425Z,5.65
2022-11-23T00:51:09.013Z,5.90
2022-11-23T00:53:37.026Z,5.20
2022-11-23T00:56:05.583Z,5.25
2022-11-23T00:58:33.443Z,5.53
2022-11-23T01:01:03.360Z,5.15
2022-11-23T01:03:34.937Z,6.07
2022-11-23T01:06:07.306Z,5.28
2022-11-23T01:08:35.005Z,5.80
2022-11-23T01:11:04.131Z,5.10
2022-11-23T01:13:31.983Z,5.78
2022-11-23T01:16:00.105Z,5.05
2022-11-23T01:18:29.709Z,5.97
2022-11-23T01:20:59.097Z,5.35
2022-11-23T01:23:29.224Z,5.60
2022-11-23T01:25:57.312Z,5.32
2022-11-23T01:28:25.285Z,5.63
2022-11-23T01:30:52.991Z,5.45
2022-11-23T01:33:21.816Z,5.47
2022-11-23T01:35:49.481Z,5.35
2022-11-23T01:38:18.678Z,5.50
2022-11-23T01:40:46.410Z,5.50
2022-11-23T01:43:16.917Z,5.70
2022-11-23T01:45:46.389Z,6.05
2022-11-23T01:48:18.835Z,5.57
2022-11-23T01:50:49.875Z,5.38
2022-11-23T01:53:20.119Z,5.30
2022-11-23T01:55:49.956Z,5.38
2022-11-23T01:58:21.270Z,5.50
2022-11-23T02:00:49.791Z,5.80
2022-11-23T02:03:18.744Z,5.38
2022-11-23T02:05:59.178Z,5.03
2022-11-23T02:08:29.588Z,5.32
2022-11-23T02:10:58.795Z,5.13
2022-11-23T02:13:28.598Z,4.95
2022-11-23T02:15:58.662Z,5.55
2022-11-23T02:18:30.239Z,5.63
2022-11-23T02:20:59.126Z,5.25
2022-11-23T02:23:40.651Z,5.10
2022-11-23T02:26:12.152Z,4.75
2022-11-23T02:28:43.090Z,5.00
2022-11-23T02:31:10.791Z,4.75
2022-11-23T02:33:39.369Z,5.03
2022-11-23T02:36:28.714Z,4.75
2022-11-23T02:38:58.421Z,4.68
2022-11-23T02:41:27.441Z,4.65
2022-11-23T02:43:57.581Z,4.97
2022-11-23T02:46:25.232Z,4.60
2022-11-23T02:48:53.038Z,4.43
2022-11-23T02:51:20.711Z,4.18
2022-11-23T02:53:48.382Z,4.22
2022-11-23T02:56:16.058Z,5.20
2022-11-23T02:58:45.143Z,4.65
2022-11-23T03:01:15.656Z,4.78
2022-11-23T03:03:43.333Z,4.93
2022-11-23T03:06:11.493Z,4.10
2022-11-23T03:08:39.166Z,4.28
2022-11-23T03:11:07.069Z,4.25
2022-11-23T03:13:34.767Z,4.72
2022-11-23T03:16:03.811Z,4.43
2022-11-23T03:18:31.536Z,4.38
2022-11-23T03:21:03.805Z,4.47
2022-11-23T03:23:32.467Z,4.10
2022-11-23T03:26:03.960Z,3.80
2022-11-23T03:28:32.980Z,4.20
2022-11-23T03:31:00.712Z,4.30
2022-11-23T03:33:29.750Z,4.72
2022-11-23T03:35:57.459Z,4.70
2022-11-23T03:38:25.134Z,4.80
2022-11-23T03:40:52.836Z,4.05
2022-11-23T03:43:21.403Z,4.00
2022-11-23T03:45:49.356Z,4.35
2022-11-23T03:48:17.520Z,4.40
2022-11-23T03:50:46.791Z,3.95
2022-11-23T03:53:14.466Z,3.95
2022-11-23T03:55:43.286Z,4.18
2022-11-23T03:58:10.968Z,3.97
2022-11-23T04:00:38.784Z,3.92
2022-11-23T04:03:06.452Z,4.05
2022-11-23T04:05:34.116Z,3.47
2022-11-23T04:08:03.144Z,3.72
2022-11-23T04:10:30.831Z,3.85
2022-11-23T04:12:58.804Z,3.90
2022-11-23T04:15:26.517Z,3.47
2022-11-23T04:17:55.312Z,4.20
2022-11-23T04:20:23.052Z,3.88
2022-11-23T04:22:50.762Z,3.80
2022-11-23T04:25:19.891Z,3.75
2022-11-23T04:27:47.587Z,2.90
2022-11-23T04:30:16.242Z,3.30
2022-11-23T04:32:45.602Z,3.60
2022-11-23T04:35:13.787Z,3.20
2022-11-23T04:37:44.345Z,3.13
2022-11-23T04:40:12.623Z,2.97
2022-11-23T04:42:41.691Z,3.40
2022-11-23T04:45:11.314Z,3.03
2022-11-23T04:47:39.306Z,2.90
2022-11-23T04:50:07.483Z,2.97
2022-11-23T04:52:35.344Z,3.50
2022-11-23T04:55:02.964Z,3.28
2022-11-23T04:57:30.674Z,2.95
2022-11-23T04:59:59.688Z,3.53
2022-11-23T05:02:27.312Z,3.15
2022-11-23T05:04:54.912Z,3.85
2022-11-23T05:07:22.569Z,3.17
2022-11-23T05:09:50.272Z,2.65
2022-11-23T05:12:17.916Z,3.20
2022-11-23T05:14:45.540Z,3.45
2022-11-23T05:17:14.648Z,3.67
2022-11-23T05:19:42.278Z,3.08
2022-11-23T05:22:09.928Z,3.35
2022-11-23T05:24:37.576Z,2.78
2022-11-23T05:27:05.214Z,2.80
2022-11-23T05:29:33.167Z,2.70
2022-11-23T05:32:01.052Z,2.80
2022-11-23T05:34:30.072Z,2.85
2022-11-23T05:36:57.716Z,3.88
2022-11-23T05:39:25.422Z,3.50
2022-11-23T05:41:53.040Z,4.18
2022-11-23T05:44:20.685Z,3.60
2022-11-23T05:46:48.315Z,3.35
2022-11-23T05:49:15.937Z,3.60
2022-11-23T05:51:44.924Z,3.13
2022-11-23T05:54:12.621Z,2.90
2022-11-23T05:56:40.626Z,3.45
2022-11-23T05:59:08.706Z,2.33
2022-11-23T06:01:36.345Z,2.97
2022-11-23T06:04:06.255Z,2.78
2022-11-23T06:06:34.071Z,2.90
2022-11-23T06:09:03.088Z,2.65
2022-11-23T06:11:31.258Z,2.90
2022-11-23T06:13:58.956Z,2.70
2022-11-23T06:16:26.673Z,2.78
2022-11-23T06:18:54.485Z,2.40
2022-11-23T06:21:22.207Z,2.38
2022-11-23T06:23:49.914Z,2.90
2022-11-23T06:26:18.921Z,3.10
2022-11-23T06:28:46.545Z,2.50
2022-11-23T06:31:14.210Z,2.97
2022-11-23T06:33:41.862Z,2.72
2022-11-23T06:36:12.365Z,3.03
2022-11-23T06:38:40.055Z,3.00
2022-11-23T06:41:07.775Z,2.90
2022-11-23T06:43:36.783Z,2.60
2022-11-23T06:46:07.515Z,3.03
2022-11-23T06:48:35.256Z,2.63
2022-11-23T06:51:03.116Z,2.25
2022-11-23T06:53:31.041Z,2.63
2022-11-23T06:56:00.420Z,2.60
2022-11-23T06:58:28.352Z,2.30
2022-11-23T07:01:00.960Z,2.40
2022-11-23T07:03:29.364Z,2.67
2022-11-23T07:05:57.190Z,2.50
2022-11-23T07:08:25.347Z,3.03
2022-11-23T07:10:53.224Z,2.40
2022-11-23T07:13:20.849Z,2.60
2022-11-23T07:15:48.461Z,2.33
2022-11-23T07:18:17.498Z,2.30
2022-11-23T07:20:45.479Z,2.42
2022-11-23T07:23:13.209Z,2.42
2022-11-23T07:25:40.934Z,2.20
2022-11-23T07:28:10.069Z,2.40
2022-11-23T07:30:37.882Z,2.20
2022-11-23T07:33:08.377Z,2.25
2022-11-23T07:35:38.021Z,3.08
2022-11-23T07:38:07.865Z,3.95
2022-11-23T07:40:36.135Z,3.55
2022-11-23T07:43:05.252Z,2.90
2022-11-23T07:45:33.227Z,2.95
2022-11-23T07:48:01.833Z,2.90
2022-11-23T07:50:30.052Z,2.80
2022-11-23T07:52:59.614Z,2.63
2022-11-23T07:55:28.377Z,3.95
2022-11-23T07:57:56.453Z,3.95
2022-11-23T08:00:25.276Z,3.45
2022-11-23T08:03:25.640Z,2.53
2022-11-23T08:05:40.670Z,2.53
2022-11-23T08:08:12.863Z,2.35
2022-11-23T08:10:47.147Z,2.45
2022-11-23T08:13:17.706Z,2.22
2022-11-23T08:15:50.167Z,2.22
2022-11-23T08:18:21.242Z,1.80
2022-11-23T08:20:48.998Z,2.13
2022-11-23T08:23:17.991Z,2.60
2022-11-23T08:25:45.710Z,2.40
2022-11-23T08:28:13.646Z,2.17
2022-11-23T08:30:42.284Z,2.53
2022-11-23T08:33:10.263Z,2.33
2022-11-23T08:35:38.844Z,2.80
2022-11-23T08:38:07.676Z,2.60
2022-11-23T08:40:37.549Z,2.90
2022-11-23T08:43:05.722Z,3.00
2022-11-23T08:45:33.408Z,2.83
2022-11-23T08:48:01.412Z,3.45
2022-11-23T08:50:30.384Z,2.65
2022-11-23T08:52:58.128Z,2.30
2022-11-23T08:55:25.818Z,2.10
2022-11-23T08:57:57.479Z,2.63
2022-11-23T09:00:25.436Z,2.10
2022-11-23T09:02:53.274Z,2.08
2022-11-23T09:05:22.722Z,2.50
2022-11-23T09:07:53.732Z,1.92
2022-11-23T09:10:25.584Z,2.33
2022-11-23T09:12:55.933Z,3.95
2022-11-23T09:15:25.448Z,1.80
2022-11-23T09:17:55.660Z,1.90
2022-11-23T09:20:23.293Z,2.08
2022-11-23T09:22:54.505Z,1.50
2022-11-23T09:25:23.226Z,1.60
2022-11-23T09:27:51.164Z,1.50
2022-11-23T09:30:19.087Z,1.95
2022-11-23T09:32:48.196Z,1.40
2022-11-23T09:35:15.933Z,1.77
2022-11-23T09:37:46.247Z,1.70
2022-11-23T09:40:17.496Z,1.70
2022-11-23T09:43:09.805Z,1.80
2022-11-23T09:45:45.724Z,1.88
2022-11-23T09:48:38.646Z,1.70
2022-11-23T09:51:19.294Z,1.80
2022-11-23T09:53:50.753Z,1.52
2022-11-23T09:56:23.721Z,1.50
2022-11-23T09:58:55.425Z,1.48
2022-11-23T10:01:23.572Z,1.38
2022-11-23T10:03:52.654Z,1.60
2022-11-23T10:06:25.802Z,1.38
2022-11-23T10:09:12.543Z,1.30
2022-11-23T10:12:12.807Z,1.50
2022-11-23T10:15:02.620Z,1.48
2022-11-23T10:17:48.513Z,1.50
2022-11-23T10:20:36.202Z,1.70
2022-11-23T10:23:18.737Z,3.47
2022-11-23T10:25:50.622Z,1.80
2022-11-23T10:28:21.317Z,1.73
2022-11-23T10:30:56.457Z,1.42
2022-11-23T10:33:31.192Z,1.30
2022-11-23T10:36:00.375Z,0.95
2022-11-23T10:38:29.059Z,1.20
2022-11-23T10:41:03.498Z,1.30
2022-11-23T10:43:38.082Z,1.60
2022-11-23T10:46:27.898Z,0.95
2022-11-23T10:48:56.740Z,1.15
2022-11-23T10:51:30.431Z,1.40
2022-11-23T10:54:05.220Z,1.10
2022-11-23T10:56:34.803Z,1.42
2022-11-23T10:59:02.581Z,1.10
2022-11-23T11:01:30.657Z,1.17
2022-11-23T11:04:04.527Z,1.40
2022-11-23T11:06:36.188Z,1.08
2022-11-23T11:09:12.258Z,1.50
2022-11-23T11:11:48.030Z,1.00
2022-11-23T11:14:17.798Z,1.25
2022-11-23T11:16:49.766Z,1.50
2022-11-23T11:19:28.620Z,1.52
2022-11-23T11:21:58.533Z,1.45
2022-11-23T11:24:33.189Z,1.63
2022-11-23T11:27:03.531Z,1.20
2022-11-23T11:29:39.025Z,1.52
2022-11-23T11:32:12.645Z,1.48
2022-11-23T11:34:46.567Z,1.10
2022-11-23T11:37:22.504Z,1.10
2022-11-23T11:39:53.528Z,1.30
2022-11-23T11:42:37.045Z,1.17
2022-11-23T11:45:11.157Z,2.10
2022-11-23T11:47:46.589Z,1.50
2022-11-23T11:50:25.885Z,1.00
2022-11-23T11:53:06.142Z,1.10
2022-11-23T11:55:47.699Z,1.05
2022-11-23T11:58:17.230Z,1.30
2022-11-23T12:00:48.063Z,1.35
2022-11-23T12:03:24.850Z,0.95
2022-11-23T12:05:55.731Z,1.40
2022-11-23T12:08:31.756Z,1.30
2022-11-23T12:11:02.174Z,1.30
2022-11-23T12:13:34.018Z,1.25
2022-11-23T12:16:08.790Z,1.27
2022-11-23T12:18:52.657Z,0.98
2022-11-23T12:21:56.153Z,1.60
2022-11-23T12:24:37.928Z,1.20
2022-11-23T12:27:16.899Z,1.30
2022-11-23T12:30:02.695Z,1.45
2022-11-23T12:32:42.819Z,1.27
2022-11-23T12:35:33.561Z,1.65
2022-11-23T12:38:14.069Z,1.00
2022-11-23T12:40:58.157Z,1.20
2022-11-23T12:43:36.697Z,1.50
2022-11-23T12:46:15.600Z,1.40
2022-11-23T12:48:57.486Z,1.55
2022-11-23T12:51:36.387Z,1.20
2022-11-23T12:54:20.922Z,1.30
2022-11-23T12:57:03.542Z,1.25
2022-11-23T12:59:43.051Z,1.23
2022-11-23T13:02:46.686Z,1.25
2022-11-23T13:06:05.294Z,1.13
2022-11-23T13:09:01.826Z,1.17
2022-11-23T13:11:44.514Z,1.10
2022-11-23T13:14:25.867Z,1.40
2022-11-23T13:17:06.153Z,1.00
2022-11-23T13:19:47.694Z,1.20
2022-11-23T13:22:18.408Z,1.35
2022-11-23T13:25:15.125Z,1.27
2022-11-23T13:27:44.786Z,1.27
2022-11-23T13:31:07.362Z,1.05
2022-11-23T13:33:38.327Z,1.45
2022-11-23T13:36:15.374Z,1.25
2022-11-23T13:38:47.320Z,0.90
2022-11-23T13:41:53.567Z,1.20
2022-11-23T13:44:24.316Z,0.93
2022-11-23T13:47:22.934Z,1.00
2022-11-23T13:49:53.461Z,1.00
2022-11-23T13:52:35.112Z,1.10
2022-11-23T13:55:20.518Z,1.13
2022-11-23T13:58:32.071Z,1.63
2022-11-23T14:01:01.663Z,1.25
2022-11-23T14:03:50.932Z,1.20
2022-11-23T14:06:38.244Z,0.82
2022-11-23T14:09:12.902Z,1.10
2022-11-23T14:11:50.449Z,1.40
2022-11-23T14:14:23.435Z,1.20
2022-11-23T14:17:24.704Z,1.35
2022-11-23T14:20:15.053Z,1.60
2022-11-23T14:22:56.349Z,1.67
2022-11-23T14:25:36.860Z,1.50
2022-11-23T14:28:19.033Z,1.30
2022-11-23T14:31:00.149Z,1.50
2022-11-23T14:33:37.858Z,1.55
2022-11-23T14:36:19.906Z,1.20
2022-11-23T14:39:10.335Z,1.25
2022-11-23T14:41:41.130Z,1.67
2022-11-23T14:44:14.454Z,1.60
2022-11-23T14:47:00.407Z,1.40
2022-11-23T14:51:57.738Z,1.60
2022-11-23T14:54:26.457Z,1.65
2022-11-23T14:56:57.729Z,1.50
2022-11-23T14:59:28.533Z,1.35
2022-11-23T15:01:59.347Z,1.60
2022-11-23T15:04:34.589Z,1.60
2022-11-23T15:09:45.785Z,1.77
2022-11-23T15:12:23.426Z,1.70
2022-11-23T15:14:51.632Z,1.65
2022-11-23T15:17:21.247Z,1.55
2022-11-23T15:19:58.099Z,1.27
2022-11-23T15:22:27.043Z,1.30
2022-11-23T15:24:55.731Z,1.55
2022-11-23T15:27:28.644Z,1.48
2022-11-23T15:29:59.443Z,1.58
2022-11-23T15:32:31.488Z,1.40
2022-11-23T15:35:06.954Z,1.38
2022-11-23T15:37:43.631Z,1.27
2022-11-23T15:40:14.722Z,1.40
2022-11-23T15:42:43.966Z,1.52
2022-11-23T15:45:40.265Z,1.38
2022-11-23T15:48:13.427Z,1.95
2022-11-23T15:50:54.644Z,1.65
2022-11-23T15:53:29.745Z,2.03
2022-11-23T15:56:01.780Z,1.77
2022-11-23T15:58:30.890Z,1.75
2022-11-23T16:01:07.931Z,1.80
2022-11-23T16:03:42.884Z,1.67
2022-11-23T16:06:18.856Z,1.95
2022-11-23T16:08:46.810Z,1.60
2022-11-23T16:11:30.732Z,1.95
2022-11-23T16:14:19.163Z,1.75
2022-11-23T16:16:48.637Z,2.00
2022-11-23T16:19:30.383Z,1.73
2022-11-23T16:22:03.296Z,2.17
2022-11-23T16:24:33.921Z,2.60
2022-11-23T16:27:02.257Z,2.30
2022-11-23T16:29:35.487Z,2.97
2022-11-23T16:32:07.006Z,2.33
2022-11-23T16:34:34.971Z,2.72
2022-11-23T16:37:04.839Z,2.47
2022-11-23T16:39:32.800Z,2.13
2022-11-23T16:42:00.516Z,2.45
2022-11-23T16:44:30.850Z,2.83
2022-11-23T16:47:17.895Z,2.70
2022-11-23T16:49:45.542Z,3.05
2022-11-23T16:52:14.553Z,2.80
2022-11-23T16:54:42.254Z,3.42
2022-11-23T16:57:24.800Z,3.17
2022-11-23T16:59:52.514Z,2.60
2022-11-23T17:02:20.491Z,2.65
2022-11-23T17:04:48.235Z,2.75
2022-11-23T17:07:17.778Z,2.78
2022-11-23T17:09:45.453Z,2.70
2022-11-23T17:12:18.019Z,2.65
2022-11-23T17:14:48.753Z,3.10
2022-11-23T17:17:20.135Z,2.55
2022-11-23T17:19:49.657Z,2.72
2022-11-23T17:22:20.536Z,2.53
2022-11-23T17:24:49.067Z,3.03
2022-11-23T17:27:19.800Z,3.00
2022-11-23T17:29:48.096Z,3.33
2022-11-23T17:32:15.864Z,3.40
2022-11-23T17:34:43.513Z,3.10
2022-11-23T17:37:17.870Z,3.13
2022-11-23T17:39:47.534Z,2.72
2022-11-23T17:42:15.543Z,3.10
2022-11-23T17:44:43.256Z,3.30
2022-11-23T17:47:19.010Z,3.58
2022-11-23T17:49:46.663Z,3.15
2022-11-23T17:52:14.548Z,2.60
2022-11-23T17:54:42.173Z,2.90
2022-11-23T17:57:15.193Z,3.10
2022-11-23T17:59:42.876Z,3.30
2022-11-23T18:02:11.276Z,3.15
2022-11-23T18:04:39.006Z,3.33
2022-11-23T18:07:07.221Z,3.58
2022-11-23T18:09:35.279Z,3.42
2022-11-23T18:12:03.397Z,3.70
2022-11-23T18:14:32.540Z,3.70
2022-11-23T18:17:00.173Z,3.65
2022-11-23T18:19:28.396Z,4.47
2022-11-23T18:21:56.330Z,3.85
2022-11-23T18:24:24.007Z,3.70
2022-11-23T18:26:51.697Z,3.55
2022-11-23T18:29:22.517Z,3.25
2022-11-23T18:31:51.601Z,3.20
2022-11-23T18:34:19.249Z,3.30
2022-11-23T18:36:47.105Z,4.43
2022-11-23T18:39:14.946Z,4.95
2022-11-23T18:41:42.688Z,5.65
2022-11-23T18:44:10.506Z,5.70
2022-11-23T18:46:38.451Z,5.85
2022-11-23T18:49:08.294Z,7.40
2022-11-23T18:51:35.948Z,6.35
2022-11-23T18:54:03.619Z,5.53
2022-11-23T18:56:31.480Z,4.28
2022-11-23T18:58:59.196Z,4.45
2022-11-23T19:01:26.941Z,4.70
2022-11-23T19:03:54.803Z,5.55
2022-11-23T19:06:24.701Z,5.60
2022-11-23T19:08:54.665Z,8.38
2022-11-23T19:11:24.201Z,8.95
2022-11-23T19:13:53.753Z,10.43
2022-11-23T19:16:23.374Z,9.40
2022-11-23T19:18:57.311Z,8.02
2022-11-23T19:21:28.051Z,5.47
2022-11-23T19:23:57.343Z,5.43
2022-11-23T19:26:26.130Z,5.18
2022-11-23T19:28:55.124Z,5.30
2022-11-23T19:31:25.488Z,5.25
2022-11-23T19:33:54.185Z,5.05
2022-11-23T19:36:23.929Z,4.93
2022-11-23T19:38:53.213Z,4.90
2022-11-23T19:41:26.636Z,4.40
2022-11-23T19:43:59.352Z,4.32
2022-11-23T19:46:27.507Z,3.83
2022-11-23T19:48:57.130Z,3.40
2022-11-23T19:51:26.029Z,3.22
2022-11-23T19:53:57.009Z,3.35
2022-11-23T19:56:29.844Z,3.55
2022-11-23T19:58:59.697Z,3.50
2022-11-23T20:01:29.293Z,3.40
2022-11-23T20:03:58.051Z,3.55
2022-11-23T20:06:28.125Z,3.00
2022-11-23T20:09:01.622Z,3.58
2022-11-23T20:11:32.781Z,2.95
2022-11-23T20:14:01.256Z,3.35
2022-11-23T20:16:31.126Z,3.33
2022-11-23T20:19:00.274Z,3.33
2022-11-23T20:21:29.453Z,3.20
2022-11-23T20:24:04.387Z,3.35
2022-11-23T20:29:00.430Z,3.50
2022-11-23T20:31:29.665Z,2.80
2022-11-23T20:33:58.069Z,2.97
2022-11-23T20:36:27.606Z,3.60
2022-11-23T20:38:55.786Z,3.03
2022-11-23T20:41:27.270Z,3.15
2022-11-23T20:43:56.286Z,3.33
2022-11-23T20:47:00.140Z,3.63
2022-11-23T20:49:13.073Z,3.10
2022-11-23T20:51:41.892Z,3.83
2022-11-23T20:54:09.910Z,3.35
2022-11-23T20:56:40.178Z,3.35
2022-11-23T20:59:07.961Z,2.60
2022-11-23T21:01:35.942Z,3.15
2022-11-23T21:04:04.091Z,2.53
2022-11-23T21:06:37.202Z,2.85
2022-11-23T21:09:06.616Z,2.70
2022-11-23T21:11:51.622Z,2.40
2022-11-23T21:14:22.517Z,2.73
2022-11-23T21:16:55.037Z,2.65
2022-11-23T21:19:24.095Z,2.70
2022-11-23T21:21:51.762Z,3.17
2022-11-23T21:24:19.794Z,3.35
2022-11-23T21:26:48.475Z,2.88
2022-11-23T21:29:16.584Z,3.40
2022-11-23T21:31:47.459Z,3.70
2022-11-23T21:34:18.703Z,3.25
2022-11-23T21:36:46.742Z,3.28
2022-11-23T21:39:15.018Z,3.22
2022-11-23T21:41:43.249Z,2.85
2022-11-23T21:44:12.121Z,2.88
2022-11-23T21:46:41.739Z,11.05
2022-11-23T21:49:11.512Z,4.10
2022-11-23T21:51:42.338Z,4.35
2022-11-23T21:54:13.890Z,3.88
2022-11-23T21:56:42.517Z,4.72
2022-11-23T21:59:10.458Z,2.50
2022-11-23T22:01:39.351Z,2.40
2022-11-23T22:04:09.784Z,2.60
2022-11-23T22:06:39.585Z,2.67
2022-11-23T22:09:09.158Z,2.92
2022-11-23T22:11:38.295Z,2.90
2022-11-23T22:14:08.612Z,3.28
2022-11-23T22:16:37.794Z,3.00
2022-11-23T22:19:06.513Z,3.13
2022-11-23T22:21:36.185Z,3.70
2022-11-23T22:24:06.787Z,3.53
2022-11-23T22:26:34.475Z,3.70
2022-11-23T22:29:02.821Z,3.85
2022-11-23T22:31:33.039Z,3.75
2022-11-23T22:34:01.365Z,4.22
2022-11-23T22:36:29.538Z,4.30
2022-11-23T22:39:01.727Z,3.92
2022-11-23T22:41:33.357Z,4.32
2022-11-23T22:44:01.050Z,4.20
2022-11-23T22:46:28.902Z,4.47
2022-11-23T22:48:59.199Z,4.45
2022-11-23T22:51:28.692Z,4.38
2022-11-23T22:53:58.174Z,4.20
2022-11-23T22:56:26.743Z,4.70
2022-11-23T23:06:18.821Z,4.25
2022-11-23T23:08:47.587Z,5.07
2022-11-23T23:11:16.376Z,4.32
2022-11-23T23:13:45.457Z,4.50
2022-11-23T23:16:14.069Z,4.40
2022-11-23T23:18:42.557Z,4.10
2022-11-23T23:21:14.421Z,4.00
2022-11-23T23:23:44.221Z,4.50
2022-11-23T23:26:14.820Z,3.63
2022-11-23T23:28:42.925Z,4.00
2022-11-23T23:31:12.187Z,3.72
2022-11-23T23:33:40.396Z,3.47
2022-11-23T23:36:10.607Z,3.70
2022-11-23T23:38:39.706Z,3.88
2022-11-23T23:41:08.681Z,3.65
2022-11-23T23:43:37.842Z,3.42
2022-11-23T23:46:07.414Z,4.05
2022-11-23T23:48:36.419Z,3.05
2022-11-23T23:51:06.793Z,3.05
2022-11-23T23:53:34.748Z,3.55
2022-11-23T23:56:06.295Z,3.67
2022-11-23T23:58:34.096Z,3.20
